Alfred Needler — CG2683 — position and weather

sailwx.info

Track history (hours):
 
Tides and Currents Weather Stations Pressure Air Temp Water Temp Dewpoint Dewpoint Depression Visibility Wind Speed Wind Dir Waves Ship Positions

Oceanographic research ship Alfred Needler (Canada)

Detailed information on ship capabilities available from University of Delaware's Ocean Information Center.

Last reported at 2017-May-24 23:00 UTC. Time now 2017-May-26 07:23 UTC.
Position N 47°30' W 052°31'.

Length 50 m; draft 5 m.

Type: Fishing. MMSI: 316001017.

Date/timePositionNaut miles runAvg speedWind from/ knotsBaromVisibWave heightAir tempDewpointWater temp
2017-May-24 23:00N 47°30' W 052°31'4 7.4
2017-May-24 22:30N 47°33' W 052°35'0 0.4
2017-May-24 21:51N 47°33' W 052°35'0 0.6
2017-May-24 21:30N 47°32' W 052°35'4 7.2
2017-May-24 20:59N 47°34' W 052°40'2 3.6
2017-May-24 20:30N 47°34' W 052°42'0 0.0
2017-May-24 17:42N 47°34' W 052°42'0 0.0
2017-May-24 17:18N 47°34' W 052°42'0 0.0
2017-May-24 17:00N 47°34' W 052°42'0 0.0
2017-May-24 15:18N 47°34' W 052°42'0 0.0
2017-May-24 15:00N 47°34' W 052°42'0 0.0
2017-May-24 14:30N 47°34' W 052°42'0 0.0
2017-May-24 13:30N 47°34' W 052°42'0 0.0
2017-May-24 13:00N 47°34' W 052°42'0 0.0
2017-May-24 12:30N 47°34' W 052°42'0 0.0
2017-May-24 12:00N 47°34' W 052°42'0 0.0
2017-May-24 11:30N 47°34' W 052°42'0 0.0
2017-May-24 11:00N 47°34' W 052°42'0 0.0
2017-May-24 10:18N 47°34' W 052°42'0 0.0
2017-May-24 09:57N 47°34' W 052°42'0 0.0
2017-May-24 09:30N 47°34' W 052°42'0 0.0
2017-May-24 09:00N 47°34' W 052°42'0 0.0
2017-May-24 08:27N 47°34' W 052°42'0 0.0
2017-May-23 16:00N 47°34' W 052°42'0 0.0
2017-May-23 15:30N 47°34' W 052°42'0 0.0
2017-May-23 13:54N 47°34' W 052°42'0 0.0
2017-May-23 13:30N 47°34' W 052°42'0 0.0
2017-May-23 02:46N 47°34' W 052°42'1 2.4
2017-May-23 02:28N 47°34' W 052°41'3 6.9
2017-May-23 02:00N 47°34' W 052°37'2 4.6
2017-May-23 01:30N 47°36' W 052°35'2 3.3
2017-May-23 00:58N 47°34' W 052°35'2 3.8
2017-May-23 00:28N 47°32' W 052°35'  
2017-May-17 15:45N 47°32' W 052°35'310.7
2017-May-17 15:30N 47°34' W 052°38'3 0.1
2017-May-16 14:14N 47°33' W 052°42'0 0.0
2017-May-16 11:59N 47°33' W 052°42'0 0.0
2017-May-16 10:14N 47°33' W 052°42'0 0.0
2017-May-16 08:53N 47°33' W 052°42'0 0.0
2017-May-16 08:23N 47°33' W 052°42'0 0.0
2017-May-16 07:53N 47°33' W 052°42'0 0.0
2017-May-16 07:23N 47°33' W 052°42'0 0.0
2017-May-16 06:59N 47°33' W 052°42'0 0.0
2017-May-16 06:29N 47°33' W 052°42'0 0.0
2017-May-16 05:59N 47°33' W 052°42'0 0.0
2017-May-16 05:29N 47°33' W 052°42'0 0.0
2017-May-16 04:56N 47°33' W 052°42'0 0.0
2017-May-16 04:26N 47°33' W 052°42'0 0.0
2017-May-16 03:59N 47°33' W 052°42'0 0.0
2017-May-16 03:28N 47°33' W 052°42'1 1.1
2017-May-16 03:00N 47°34' W 052°42'  
Track history (hours):
 
Tides and Currents Weather Stations Pressure Air Temp Water Temp Dewpoint Dewpoint Depression Visibility Wind Speed Wind Dir Waves Ship Positions

Oceanographic research ship Alfred Needler (Canada)

Detailed information on ship capabilities available from University of Delaware's Ocean Information Center.

Last reported at 2017-May-24 23:00 UTC. Time now 2017-May-26 07:23 UTC.
Position N 47°30' W 052°31'.

Length 50 m; draft 5 m.

Type: Fishing. MMSI: 316001017.

Date/timePositionNaut miles runAvg speedWind from/ knotsBaromVisibWave heightAir tempDewpointWater temp
2017-May-24 23:00N 47°30' W 052°31'4 7.4
2017-May-24 22:30N 47°33' W 052°35'0 0.4
2017-May-24 21:51N 47°33' W 052°35'0 0.6
2017-May-24 21:30N 47°32' W 052°35'4 7.2
2017-May-24 20:59N 47°34' W 052°40'2 3.6
2017-May-24 20:30N 47°34' W 052°42'0 0.0
2017-May-24 17:42N 47°34' W 052°42'0 0.0
2017-May-24 17:18N 47°34' W 052°42'0 0.0
2017-May-24 17:00N 47°34' W 052°42'0 0.0
2017-May-24 15:18N 47°34' W 052°42'0 0.0
2017-May-24 15:00N 47°34' W 052°42'0 0.0
2017-May-24 14:30N 47°34' W 052°42'0 0.0
2017-May-24 13:30N 47°34' W 052°42'0 0.0
2017-May-24 13:00N 47°34' W 052°42'0 0.0
2017-May-24 12:30N 47°34' W 052°42'0 0.0
2017-May-24 12:00N 47°34' W 052°42'0 0.0
2017-May-24 11:30N 47°34' W 052°42'0 0.0
2017-May-24 11:00N 47°34' W 052°42'0 0.0
2017-May-24 10:18N 47°34' W 052°42'0 0.0
2017-May-24 09:57N 47°34' W 052°42'0 0.0
2017-May-24 09:30N 47°34' W 052°42'0 0.0
2017-May-24 09:00N 47°34' W 052°42'0 0.0
2017-May-24 08:27N 47°34' W 052°42'0 0.0
2017-May-23 16:00N 47°34' W 052°42'0 0.0
2017-May-23 15:30N 47°34' W 052°42'0 0.0
2017-May-23 13:54N 47°34' W 052°42'0 0.0
2017-May-23 13:30N 47°34' W 052°42'0 0.0
2017-May-23 02:46N 47°34' W 052°42'1 2.4
2017-May-23 02:28N 47°34' W 052°41'3 6.9
2017-May-23 02:00N 47°34' W 052°37'2 4.6
2017-May-23 01:30N 47°36' W 052°35'2 3.3
2017-May-23 00:58N 47°34' W 052°35'2 3.8
2017-May-23 00:28N 47°32' W 052°35'  
2017-May-17 15:45N 47°32' W 052°35'310.7
2017-May-17 15:30N 47°34' W 052°38'3 0.1
2017-May-16 14:14N 47°33' W 052°42'0 0.0
2017-May-16 11:59N 47°33' W 052°42'0 0.0
2017-May-16 10:14N 47°33' W 052°42'0 0.0
2017-May-16 08:53N 47°33' W 052°42'0 0.0
2017-May-16 08:23N 47°33' W 052°42'0 0.0
2017-May-16 07:53N 47°33' W 052°42'0 0.0
2017-May-16 07:23N 47°33' W 052°42'0 0.0
2017-May-16 06:59N 47°33' W 052°42'0 0.0
2017-May-16 06:29N 47°33' W 052°42'0 0.0
2017-May-16 05:59N 47°33' W 052°42'0 0.0
2017-May-16 05:29N 47°33' W 052°42'0 0.0
2017-May-16 04:56N 47°33' W 052°42'0 0.0
2017-May-16 04:26N 47°33' W 052°42'0 0.0
2017-May-16 03:59N 47°33' W 052°42'0 0.0
2017-May-16 03:28N 47°33' W 052°42'1 1.1
2017-May-16 03:00N 47°34' W 052°42'  

Dump ship's entire track history